Latest Weather Observations for Mackay

IDQ60801

Issued at 8:31 am EST Saturday 28 February 2015 (issued every 30 minutes, with the page automatically refreshed every 10 minutes)

About weather observations | Map of weather stations | Latest weather observations for QLD | Other Formats
Station Details ID: 033119 Name: MACKAY M.O Lat: -21.12 Lon: 149.22 Height: 30.26 m
Data from the previous 72 hours. | See also: Recent months at Mackay
Date/Time
EST
Temp
°C
App
Temp
°C
Dew
Point
Rel
Hum
%
Delta-T
°C
Wind Press
QNH
hPa
Press
MSL
hPa
Rain
since 9 am
mm
Dir
 
Spd
km/h
Gust
km/h
Spd
kts
Gust
kts
28/08:00am 26.6 29.9 22.6 78 2.7 SSW 9 13 5 7 1008.9 1008.7 0.0
28/07:00am 23.7 27.2 22.2 91 1.0 WSW 7 9 4 5 1008.3 1008.1 0.0
28/06:30am 22.9 25.8 21.8 93 0.7 SW 9 11 5 6 1008.0 1007.8 0.0
28/05:30am 23.1 26.1 22.0 93 0.7 SW 9 11 5 6 1007.6 1007.4 0.0
28/05:00am 23.7 27.2 21.9 90 1.2 WNW 6 7 3 4 1007.2 1007.0 0.0
28/04:30am 23.3 26.4 22.1 93 0.8 WSW 9 11 5 6 1007.4 1007.2 0.0
28/04:00am 23.8 27.7 21.8 88 1.3 NNW 4 7 2 4 1007.4 1007.2 0.0
28/03:30am 24.7 27.5 21.5 82 2.1 NNW 9 9 5 5 1007.2 1007.0 0.0
28/03:00am 24.7 28.0 21.9 84 1.9 NNW 7 9 4 5 1007.2 1007.0 0.0
28/02:30am 25.1 28.4 21.8 82 2.2 NW 7 9 4 5 1007.4 1007.2 0.0
28/02:00am 25.2 28.8 22.1 83 2.1 NNW 6 9 3 5 1007.6 1007.4 0.0
28/01:30am 25.3 28.7 21.7 80 2.4 NNW 6 7 3 4 1008.0 1007.8 0.0
28/01:00am 25.3 28.5 21.7 80 2.4 N 7 9 4 5 1008.0 1007.8 0.0
28/12:30am 25.1 28.4 21.8 82 2.2 N 7 11 4 6 1008.2 1008.0 0.0
28/12:00am 25.3 28.4 21.4 79 2.6 N 7 11 4 6 1008.4 1008.2 0.0
 
Date/Time
EST
Temp
°C
App
Temp
°C
Dew
Point
Rel
Hum
%
Delta-T
°C
Wind Press
QNH
hPa
Press
MSL
hPa
Rain
since 9 am
mm
Dir
 
Spd
km/h
Gust
km/h
Spd
kts
Gust
kts
27/11:30pm 25.2 28.4 21.6 80 2.4 N 7 11 4 6 1008.5 1008.3 0.0
27/10:30pm 25.4 28.6 21.6 79 2.5 N 7 11 4 6 1008.7 1008.5 0.0
27/10:00pm 25.3 28.5 21.7 80 2.4 N 7 11 4 6 1008.5 1008.3 0.0
27/09:30pm 25.7 28.8 21.5 77 2.8 N 7 13 4 7 1008.4 1008.2 0.0
27/09:00pm 25.6 28.7 21.5 78 2.7 NNE 7 13 4 7 1008.0 1007.8 0.0
27/08:30pm 26.0 28.7 21.3 75 3.1 NNE 9 17 5 9 1007.3 1007.1 0.0
27/08:00pm 26.1 28.9 21.6 76 3.0 NE 9 15 5 8 1007.3 1007.1 0.0
27/07:30pm 26.2 29.1 21.7 76 3.0 NE 9 15 5 8 1006.9 1006.7 0.0
27/07:00pm 26.4 29.3 21.8 76 3.1 NE 9 19 5 10 1006.8 1006.6 0.0
27/06:30pm 26.7 29.7 21.9 75 3.2 NE 9 15 5 8 1006.7 1006.5 0.0
27/06:00pm 27.1 29.2 21.7 72 3.6 NE 13 20 7 11 1006.1 1005.9 0.0
27/05:30pm 27.8 30.4 22.0 70 3.9 NE 11 17 6 9 1006.2 1006.0 0.0
27/05:00pm 28.2 30.3 21.7 68 4.4 NE 13 22 7 12 1005.4 1005.2 0.0
27/04:30pm 28.8 30.0 21.5 64 4.9 ENE 17 26 9 14 1005.6 1005.4 0.0
27/04:00pm 29.1 30.2 22.0 65 4.8 ENE 19 28 10 15 1005.5 1005.3 0.0
27/03:30pm 29.1 30.0 21.5 63 5.1 E 19 24 10 13 1005.8 1005.6 0.0
27/03:00pm 29.3 30.2 21.6 63 5.2 ENE 19 26 10 14 1005.9 1005.7 0.0
27/02:30pm 29.2 30.3 21.3 62 5.3 ENE 17 24 9 13 1006.2 1006.0 0.0
27/02:00pm 29.8 31.9 22.5 65 5.0 E 15 22 8 12 1006.3 1006.1 0.0
27/01:30pm 29.5 30.8 21.6 62 5.3 E 17 26 9 14 1006.4 1006.2 0.0
27/01:00pm 29.6 30.9 21.7 62 5.3 ENE 17 24 9 13 1006.7 1006.5 0.0
27/12:30pm 29.4 31.4 21.5 62 5.3 E 13 22 7 12 1007.3 1007.1 0.0
27/12:00pm 29.6 31.2 20.7 58 5.9 E 13 20 7 11 1007.7 1007.5 0.0
27/11:30am 28.6 29.7 19.6 58 5.9 E 13 19 7 10 1007.8 1007.6 0.0
27/11:00am 29.8 31.7 20.6 57 6.1 ESE 11 17 6 9 1008.1 1007.9 0.0
27/10:30am 29.4 32.0 21.2 61 5.5 ESE 9 17 5 9 1008.1 1007.9 0.0
27/10:00am 29.1 31.7 22.0 65 4.8 SE 11 15 6 8 1008.3 1008.1 0.0
27/09:30am 28.7 31.7 22.0 67 4.5 SE 9 13 5 7 1008.4 1008.2 0.0
27/09:00am 28.1 32.3 22.5 71 3.8 WSW 4 9 2 5 1008.5 1008.3 0.0
27/08:30am 27.6 31.8 22.4 73 3.5 S 4 7 2 4 1008.3 1008.1 0.0
27/08:00am 26.3 29.8 22.9 81 2.3 SW 9 11 5 6 1008.2 1008.0 0.0
27/07:30am 25.0 27.9 22.5 86 1.7 SW 11 13 6 7 1008.0 1007.8 0.0
27/07:00am 23.8 26.8 22.6 93 0.8 SW 11 15 6 8 1007.8 1007.6 0.0
27/06:30am 23.1 25.8 22.2 95 0.6 SW 11 15 6 8 1007.5 1007.3 0.0
27/06:00am 22.8 25.9 22.2 96 0.4 SW 9 13 5 7 1007.1 1006.9 0.0
27/05:30am 22.9 26.0 22.1 95 0.5 SW 9 11 5 6 1006.7 1006.5 0.0
27/05:00am 23.0 25.6 21.9 93 0.7 WSW 11 13 6 7 1006.5 1006.3 0.0
27/04:30am 23.2 25.8 22.0 93 0.8 WSW 11 13 6 7 1006.3 1006.1 0.0
27/04:00am 24.0 27.4 21.7 87 1.5 NW 6 7 3 4 1006.2 1006.0 0.0
27/03:30am 24.1 27.6 21.8 87 1.5 NNW 6 7 3 4 1006.2 1006.0 0.0
27/03:00am 24.2 28.6 22.1 88 1.4 W 2 7 1 4 1006.3 1006.1 0.0
27/02:30am 24.1 27.6 22.2 89 1.3 W 7 9 4 5 1006.7 1006.5 0.0
27/02:00am 24.3 29.1 22.1 87 1.5 CALM 0 0 0 0 1007.0 1006.8 0.0
27/01:30am 24.3 27.8 22.1 87 1.5 SW 7 7 4 4 1007.2 1007.0 0.0
27/01:00am 25.4 29.1 22.3 83 2.1 NNW 6 9 3 5 1007.7 1007.5 0.0
27/12:30am 25.5 29.2 22.5 83 2.0 NE 7 9 4 5 1007.8 1007.6 0.0
27/12:00am 25.8 28.9 22.2 80 2.4 ENE 9 15 5 8 1008.1 1007.9 0.0
 
Date/Time
EST
Temp
°C
App
Temp
°C
Dew
Point
Rel
Hum
%
Delta-T
°C
Wind Press
QNH
hPa
Press
MSL
hPa
Rain
since 9 am
mm
Dir
 
Spd
km/h
Gust
km/h
Spd
kts
Gust
kts
26/11:30pm 26.0 29.2 22.4 80 2.4 ENE 9 15 5 8 1008.3 1008.1 0.0
26/11:00pm 26.3 28.6 22.1 77 2.8 ENE 13 20 7 11 1008.4 1008.2 0.0
26/10:30pm 26.3 28.7 22.3 78 2.7 ENE 13 20 7 11 1008.3 1008.1 0.0
26/10:00pm 26.5 28.5 22.2 77 2.9 E 15 20 8 11 1008.2 1008.0 0.0
26/09:30pm 26.5 28.9 22.2 77 2.9 ENE 13 20 7 11 1008.0 1007.8 0.0
26/09:00pm 26.4 29.1 22.1 77 2.9 ENE 11 19 6 10 1007.9 1007.7 0.0
26/08:30pm 26.3 29.0 22.1 77 2.8 NE 11 19 6 10 1007.5 1007.3 0.0
26/08:00pm 26.5 28.8 22.0 76 3.0 ENE 13 19 7 10 1007.2 1007.0 0.0
26/07:30pm 26.6 28.7 21.0 71 3.7 ENE 11 17 6 9 1006.8 1006.6 0.0
26/07:00pm 26.7 28.5 21.1 71 3.7 ENE 13 20 7 11 1006.4 1006.2 0.0
26/06:30pm 26.9 28.5 20.7 69 4.1 ENE 13 20 7 11 1006.1 1005.9 0.0
26/06:00pm 27.3 28.8 21.3 69 4.0 ENE 15 22 8 12 1006.0 1005.8 0.0
26/05:30pm 27.6 28.9 21.6 70 4.0 E 17 24 9 13 1005.5 1005.3 0.0
26/05:00pm 28.1 30.1 21.5 67 4.4 E 13 20 7 11 1005.2 1005.0 0.0
26/04:30pm 28.6 31.2 21.9 67 4.5 ESE 11 20 6 11 1004.9 1004.7 0.0
26/04:00pm 28.3 30.0 21.6 67 4.5 E 15 22 8 12 1005.1 1004.9 0.0
26/03:30pm 28.8 30.8 22.3 68 4.4 E 15 24 8 13 1005.1 1004.9 0.0
26/03:00pm 28.5 30.5 21.5 66 4.7 E 13 20 7 11 1005.4 1005.2 0.0
26/02:30pm 28.6 30.9 22.1 68 4.4 ESE 13 20 7 11 1005.7 1005.5 0.0
26/02:00pm 29.0 30.8 21.9 65 4.8 ESE 15 24 8 13 1006.2 1006.0 0.0
26/01:30pm 29.2 31.2 22.3 66 4.7 ESE 15 24 8 13 1006.6 1006.4 0.0
26/01:00pm 29.5 31.5 22.3 65 4.9 ESE 15 24 8 13 1007.1 1006.9 0.0
26/12:30pm 28.6 30.4 21.9 67 4.5 ESE 15 26 8 14 1007.4 1007.2 0.0
26/12:00pm 28.6 30.3 22.3 68 4.3 ESE 17 26 9 14 1007.9 1007.7 0.0
26/11:30am 29.4 32.2 23.0 68 4.4 SE 13 22 7 12 1008.4 1008.2 0.0
26/11:00am 28.9 31.1 21.9 66 4.7 SE 13 20 7 11 1008.6 1008.4 0.0
26/10:30am 29.0 30.9 22.0 66 4.7 SE 15 24 8 13 1008.9 1008.7 0.0
26/10:00am 29.2 30.9 22.3 66 4.7 SSE 17 26 9 14 1009.0 1008.8 0.0
26/09:30am 28.8 31.1 22.8 70 4.1 SSE 15 22 8 12 1009.1 1008.9 0.0
26/09:00am 28.2 30.9 22.8 72 3.7 SSE 13 20 7 11 1009.2 1009.0 0.0
26/08:30am 27.9 30.2 22.8 74 3.5 S 15 20 8 11 1009.3 1009.1 0.0
26/08:00am 27.7 30.4 22.9 75 3.3 S 13 20 7 11 1008.9 1008.7 0.0
26/07:30am 27.7 30.2 22.4 73 3.6 SSE 13 20 7 11 1009.0 1008.8 0.0
26/07:00am 26.9 28.7 21.8 73 3.4 SSE 15 20 8 11 1008.6 1008.4 0.0
26/06:30am 26.1 28.3 21.8 77 2.9 SSE 13 20 7 11 1008.1 1007.9 0.0
26/06:00am 25.8 28.1 21.3 76 3.0 SE 11 19 6 10 1007.9 1007.7 0.0
26/05:30am 26.1 28.8 22.2 79 2.6 SE 11 17 6 9 1007.6 1007.4 0.0
26/05:00am 26.3 28.5 21.8 76 3.0 ESE 13 20 7 11 1007.3 1007.1 0.0
26/04:30am 26.5 28.4 21.4 73 3.4 ESE 13 24 7 13 1007.1 1006.9 0.0
26/04:00am 26.3 28.4 21.7 76 3.1 ESE 13 22 7 12 1007.0 1006.8 0.0
26/03:30am 26.5 27.8 21.7 75 3.2 SE 17 24 9 13 1007.2 1007.0 0.0
26/03:00am 26.6 28.6 22.3 77 2.9 SE 15 22 8 12 1007.2 1007.0 0.0
26/02:30am 26.6 28.7 22.5 78 2.8 ESE 15 28 8 15 1007.1 1006.9 0.0
26/02:00am 26.5 28.6 22.5 78 2.7 SE 15 24 8 13 1007.5 1007.3 0.0
26/01:30am 26.7 28.9 22.6 78 2.8 ESE 15 24 8 13 1007.8 1007.6 0.0
26/01:00am 26.7 29.5 23.0 80 2.5 SE 13 26 7 14 1008.1 1007.9 0.0
26/12:30am 26.9 29.6 22.8 78 2.8 SE 13 24 7 13 1008.3 1008.1 0.0
26/12:00am 26.8 29.7 22.5 77 2.9 SE 11 20 6 11 1008.5 1008.3 0.0
 
Date/Time
EST
Temp
°C
App
Temp
°C
Dew
Point
Rel
Hum
%
Delta-T
°C
Wind Press
QNH
hPa
Press
MSL
hPa
Rain
since 9 am
mm
Dir
 
Spd
km/h
Gust
km/h
Spd
kts
Gust
kts
25/11:30pm 26.7 29.1 22.2 76 3.0 SE 13 20 7 11 1008.5 1008.3 0.0
25/11:00pm 26.9 28.3 21.8 73 3.4 ESE 17 26 9 14 1008.5 1008.3 0.0
25/10:30pm 26.8 28.7 22.0 75 3.2 SE 15 24 8 13 1008.6 1008.4 0.0
25/10:00pm 26.8 29.0 21.9 74 3.3 SE 13 22 7 12 1008.8 1008.6 0.0
25/09:30pm 26.9 28.8 22.1 75 3.2 ESE 15 22 8 12 1008.7 1008.5 0.0
25/09:00pm 27.2 29.6 22.2 74 3.4 ESE 13 20 7 11 1008.5 1008.3 0.0
25/08:30pm 27.1 29.3 21.9 73 3.5 SE 13 20 7 11 1008.4 1008.2 0.0
25/08:00pm 27.0 28.6 22.1 74 3.3 SE 17 28 9 15 1008.0 1007.8 0.0
25/07:30pm 27.1 29.1 23.0 78 2.8 ESE 17 32 9 17 1007.6 1007.4 0.0
25/07:00pm 27.1 29.1 23.0 78 2.8 ESE 17 28 9 15 1007.3 1007.1 0.0
25/06:30pm 27.3 28.7 21.9 72 3.6 ESE 17 28 9 15 1007.1 1006.9 0.0
25/06:00pm 27.7 29.8 22.5 73 3.5 ESE 15 30 8 16 1006.6 1006.4 0.0
25/05:30pm 28.2 30.5 22.1 69 4.1 ESE 13 22 7 12 1006.4 1006.2 0.0
25/05:00pm 28.8 31.2 22.3 68 4.4 ESE 13 22 7 12 1006.2 1006.0 0.0
25/04:30pm 28.8 31.2 22.2 67 4.5 E 13 24 7 13 1006.0 1005.8 0.0
25/04:00pm 28.9 30.8 22.1 66 4.6 ESE 15 26 8 14 1005.9 1005.7 0.0
25/03:30pm 28.8 30.2 21.8 66 4.7 ESE 17 24 9 13 1006.2 1006.0 0.0
25/03:00pm 28.5 29.8 21.7 66 4.6 ESE 17 28 9 15 1006.4 1006.2 0.0
25/02:30pm 29.1 30.5 22.5 67 4.5 ESE 19 32 10 17 1006.7 1006.5 0.0
25/02:00pm 28.8 29.8 22.2 67 4.5 ESE 20 33 11 18 1007.1 1006.9 0.0
25/01:30pm 29.0 30.0 21.7 64 4.9 SE 19 33 10 18 1007.3 1007.1 0.0
25/01:00pm 29.3 30.4 22.4 66 4.7 SE 20 37 11 20 1007.5 1007.3 0.0
25/12:30pm 29.4 31.1 23.0 68 4.4 SE 19 30 10 16 1008.0 1007.8 0.0
25/12:00pm 29.4 31.7 23.5 70 4.1 SE 17 28 9 15 1008.5 1008.3 0.0
25/11:30am 29.1 31.3 23.3 71 4.0 ESE 17 26 9 14 1008.9 1008.7 0.0
25/11:00am 29.7 32.8 23.6 69 4.2 SE 13 20 7 11 1009.1 1008.9 0.0
25/10:30am 29.2 32.3 23.5 71 3.9 SE 13 22 7 12 1009.5 1009.3 0.0
25/10:00am 28.9 31.4 23.2 71 3.9 SSE 15 26 8 14 1009.6 1009.4 0.0
25/09:30am 28.5 30.5 23.6 75 3.4 SSE 19 28 10 15 1009.8 1009.6 0.0
25/09:00am 28.3 30.6 23.5 75 3.3 SSE 17 28 9 15 1009.8 1009.6 0.6

Other Formats:

Comma delimited format used in spreadsheet applications
http://www.bom.gov.au/fwo/IDQ60801/IDQ60801.94367.axf

JavaScript Object Notation format (JSON) in row-major order
http://www.bom.gov.au/fwo/IDQ60801/IDQ60801.94367.json